Telemetry
Timestamp Node Air Util TX Channel Util Battery Uptime Voltage Current Barometric Pressure Relative Humidity Temperature Gas Resistance
2026-09-04 22:03:55 J8ke
2026-09-04 22:03:55 J8ke
2026-09-04 22:03:47 tge0 2.45% 3.1% 94% 9998343 4.12 V
2026-09-04 22:03:47 tge0 2.45% 3.1% 94% 9998343 4.12 V
2026-09-04 22:03:13 LMGB 0.28% 3.3% 101% 1175331 -0.0 V
2026-09-04 22:03:12 LMGB 0.28% 3.3% 101% 1175331 -0.0 V
2026-09-04 22:02:59 RF03 0.04% 2.1% 99% 1347011 4.19 V
2026-09-04 22:02:58 RF03 0.04% 2.1% 99% 1347011 4.19 V
2026-09-04 22:02:56 ah03 696.34 hPa 60.52% 27.0°C
2026-09-04 22:02:56 ah03 696.34 hPa 60.52% 27.0°C
2026-09-04 22:02:55 RF03 0.04% 2.1% 99% 1347011 4.19 V
2026-09-04 22:02:55 RF03 0.04% 2.1% 99% 1347011 4.19 V
2026-09-04 22:02:55 RF03 0.04% 2.1% 99% 1347011 4.19 V
2026-09-04 22:02:53 ah03 696.34 hPa 60.52% 27.0°C
2026-09-04 22:02:53 ah03 696.34 hPa 60.52% 27.0°C
2026-09-04 22:02:47 ah03 696.34 hPa 60.52% 27.0°C
2026-09-04 22:02:40 ah03 0.77% 2.9% 78% 4056475 3.97 V
2026-09-04 22:02:40 ah03 0.77% 2.9% 78% 4056475 3.97 V
2026-09-04 22:02:39 ah03 0.77% 2.9% 78% 4056475 3.97 V
2026-09-04 22:02:26 PMT2 0.39% 0.9% 101% 1957023 4.2 V
2026-09-04 22:02:26 PMT2 0.39% 0.9% 101% 1957023 4.2 V
2026-09-04 22:01:58 PMT2 22.9°C
2026-09-04 22:01:57 PMT2 22.9°C
2026-09-04 22:01:48 Mex1 0.4% 0.0% 40% 33969 3.63 V
2026-09-04 22:01:48 Mex1 0.4% 0.0% 40% 33969 3.63 V
2026-09-04 22:00:53 IIXF 1.62% 7.8% 101% 1323764 4.36 V
2026-09-04 22:00:53 IIXF 1.62% 7.8% 101% 1323764 4.36 V
2026-09-04 22:00:38 EN11 0.05% 10.2% 101% 213232 4.12 V
2026-09-04 22:00:33 PTRH 0.38% 0.0% 56% 1588778 3.77 V
2026-09-04 22:00:33 PTRH 0.38% 0.0% 56% 1588778 3.77 V
2026-09-04 22:00:04 3bb8 1.48% 4.2% 101% 2534876 5.04 V
2026-09-04 22:00:04 3bb8 1.48% 4.2% 101% 2534876 5.04 V
2026-09-04 21:59:57 IIXF 851.78 hPa 59.8% 15.61°C 57.33 Ohm
2026-09-04 21:59:56 IIXF 851.78 hPa 59.8% 15.61°C 57.33 Ohm
2026-09-04 21:59:54 5RC 0.07% 0.0% 101% 534746 4.28 V
2026-09-04 21:59:53 5RC 0.07% 0.0% 101% 534746 4.28 V
2026-09-04 21:59:29 EEPr 0.15% 0.0% 101% 2460662 4.33 V
2026-09-04 21:59:28 EEPr 0.15% 0.0% 101% 2460662 4.33 V
2026-09-04 21:57:57 ah03
2026-09-04 21:57:56 ah03
2026-09-04 21:57:51 ah03
2026-09-04 21:57:51 ah03
2026-09-04 21:56:30 DOS 0.94% 0.0% 99% 384755 4.18 V
2026-09-04 21:56:30 DOS 0.94% 0.0% 99% 384755 4.18 V
2026-09-04 21:56:26 LML2 0.25% 0.0% 100% 699957 4.15 V
2026-09-04 21:56:26 LML2 0.25% 0.0% 100% 699957 4.15 V
2026-09-04 21:55:18 TG08 0.44% 0.0% 75% 36978 3.92 V
2026-09-04 21:51:20 DJMH 0.34% 3.4% 83% 17075814 4.01 V
2026-09-04 21:51:20 DJMH 0.34% 3.4% 83% 17075814 4.01 V
2026-09-04 21:50:13 LRX1 1013.58 hPa 41.34% 21.13°C
2026-09-04 21:50:12 LRX1 1013.58 hPa 41.34% 21.13°C
2026-09-04 21:50:11 LRX1 1013.58 hPa 41.34% 21.13°C
2026-09-04 21:49:23 LRX1 0.92% 1.1% 101% 8350028 4.84 V
2026-09-04 21:49:20 LRX1 0.92% 1.1% 101% 8350028 4.84 V
2026-09-04 21:49:20 LRX1 0.92% 1.1% 101% 8350028 4.84 V
2026-09-04 21:47:27 BB04 1.75% 5.1% 101% 1038601 -0.0 V
2026-09-04 21:47:26 BB04 1.75% 5.1% 101% 1038601 -0.0 V
2026-09-04 21:47:25 BB04 1.75% 5.1% 101% 1038601 -0.0 V
2026-09-04 21:46:30 ah01 0.4% 0.0% 96% 6347898 4.15 V
2026-09-04 21:46:29 ah01 0.4% 0.0% 96% 6347898 4.15 V
2026-09-04 21:46:25 ah01 0.4% 0.0% 96% 6347898 4.15 V
2026-09-04 21:46:25 ah01 0.4% 0.0% 96% 6347898 4.15 V
2026-09-04 21:44:26 PMT2 0.42% 2.1% 101% 1955942 4.2 V
2026-09-04 21:44:26 PMT2 0.42% 2.1% 101% 1955942 4.2 V
2026-09-04 21:44:22 EEPa 851.71 hPa 52.67% 21.28°C
2026-09-04 21:44:21 EEPa 851.71 hPa 52.67% 21.28°C
2026-09-04 21:43:57 PMT2 23.25°C
2026-09-04 21:42:24 J8ke 1.08% 6.9% 101% 37740 4.26 V
2026-09-04 21:42:23 J8ke 1.08% 6.9% 101% 37740 4.26 V
2026-09-04 21:42:15 ah02 68.84% 14.91°C
2026-09-04 21:42:15 ah02 68.84% 14.91°C
2026-09-04 21:42:11 ah02 68.84% 14.91°C
2026-09-04 21:42:11 ah02 68.84% 14.91°C
2026-09-04 21:41:56 ah02 0.04% 11.2% 64% 61 3.84 V
2026-09-04 21:41:56 ah02 0.04% 11.2% 64% 61 3.84 V
2026-09-04 21:41:48 ah02 0.04% 11.2% 64% 61 3.84 V
2026-09-04 21:40:40 TG08 21.3°C
2026-09-04 21:39:53 IIXF 1.62% 7.7% 101% 1322504 4.3 V
2026-09-04 21:39:53 IIXF 1.62% 7.7% 101% 1322504 4.3 V
2026-09-04 21:39:18 5RC 1026.69 hPa 73.67% 16.45°C
2026-09-04 21:39:18 5RC 1026.69 hPa 73.67% 16.45°C
2026-09-04 21:38:57 IIXF 851.78 hPa 59.8% 15.61°C 57.33 Ohm
2026-09-04 21:38:56 IIXF 851.78 hPa 59.8% 15.61°C 57.33 Ohm
2026-09-04 21:36:03 38b6 0.08% 4.3% 101% 724057 4.02 V
2026-09-04 21:36:03 38b6 0.08% 4.3% 101% 724057 4.02 V
2026-09-04 21:33:47 htec 2.71% 5.8% 101% 101468 4.26 V
2026-09-04 21:33:47 htec 2.71% 5.8% 101% 101468 4.26 V
2026-09-04 21:33:42 htec 2.71% 5.8% 101% 101468 4.26 V
2026-09-04 21:33:42 htec 2.71% 5.8% 101% 101468 4.26 V
2026-09-04 21:32:54 RF03 0.07% 7.0% 99% 1345210 4.18 V
2026-09-04 21:32:54 RF03 0.07% 7.0% 99% 1345210 4.18 V
2026-09-04 21:32:54 RF03 0.07% 7.0% 99% 1345210 4.18 V
2026-09-04 21:32:04 ah03 0.77% 3.9% 78% 4054643 3.97 V
2026-09-04 21:32:03 ah03 0.77% 3.9% 78% 4054643 3.97 V
2026-09-04 21:32:00 ah03 696.34 hPa 61.48% 27.0°C
2026-09-04 21:31:59 ah03 696.34 hPa 61.48% 27.0°C
2026-09-04 21:31:57 ah03 0.77% 3.9% 78% 4054643 3.97 V
2026-09-04 21:31:56 ah03 0.77% 3.9% 78% 4054643 3.97 V
2026-09-04 21:29:22 EEPr 0.15% 1.0% 101% 2458855 4.34 V
2026-09-04 21:29:22 EEPr 0.15% 1.0% 101% 2458855 4.34 V
2026-09-04 21:28:35 ah01 0.34% 1.1% 96% 6346817 4.15 V
2026-09-04 21:28:28 LRX1 0.95% 0.0% 101% 8348768 4.83 V
2026-09-04 21:28:27 LRX1 0.95% 0.0% 101% 8348768 4.83 V
2026-09-04 21:28:25 LRX1 0.95% 0.0% 101% 8348768 4.83 V
2026-09-04 21:28:24 ah01 0.34% 1.1% 96% 6346817 4.15 V
2026-09-04 21:28:24 ah01 0.34% 1.1% 96% 6346817 4.15 V
2026-09-04 21:27:26 ah03
2026-09-04 21:27:25 ah03
2026-09-04 21:27:21 ah03
2026-09-04 21:27:20 ah03
2026-09-04 21:27:11 LMGB 0.22% 1.6% 101% 1173170 -0.0 V
2026-09-04 21:27:11 LMGB 0.22% 1.6% 101% 1173170 -0.0 V
2026-09-04 21:26:26 PMT2 0.33% 0.9% 101% 1954862 4.2 V
2026-09-04 21:26:25 PMT2 0.33% 0.9% 101% 1954862 4.2 V
2026-09-04 21:25:57 PMT2 23.0°C
2026-09-04 21:25:56 PMT2 23.0°C
2026-09-04 21:25:18 TG08 0.41% 0.0% 76% 35177 3.93 V
2026-09-04 21:25:12 Jim1 0.9% 7.9% 93% 17530236 4.11 V
2026-09-04 21:25:12 Jim1 0.9% 7.9% 93% 17530236 4.11 V
2026-09-04 21:25:05 RF01 0.99% 0.0% 98% 1575055 4.16 V
2026-09-04 21:25:05 RF01 0.99% 0.0% 98% 1575055 4.16 V
2026-09-04 21:24:33 PTRH 0.38% 0.0% 55% 1586618 3.76 V
2026-09-04 21:24:33 PTRH 0.38% 0.0% 55% 1586618 3.76 V
2026-09-04 21:24:18 RF01 0.99% 0.0% 98% 1575055 4.16 V
2026-09-04 21:24:18 RF01 0.99% 0.0% 98% 1575055 4.16 V
2026-09-04 21:24:18 RF01 0.99% 0.0% 98% 1575055 4.16 V
2026-09-04 21:22:13 Rhee 0.6% 2.0% 101% 200203 4.21 V
2026-09-04 21:22:13 Rhee 0.6% 2.0% 101% 200203 4.21 V
2026-09-04 21:21:03 dc64 0.21% 0.0% 75% 1465874 3.95 V
2026-09-04 21:21:03 dc64 0.21% 0.0% 75% 1465874 3.95 V
2026-09-04 21:20:26 LML2 0.21% 0.0% 100% 697797 4.15 V
2026-09-04 21:20:25 LML2 0.21% 0.0% 100% 697797 4.15 V
2026-09-04 21:18:53 IIXF 1.49% 3.9% 101% 1321244 4.28 V
2026-09-04 21:18:53 IIXF 1.49% 3.9% 101% 1321244 4.28 V
2026-09-04 21:18:05 3bb8 1.65% 4.7% 101% 2532356 5.05 V
2026-09-04 21:18:05 3bb8 1.65% 4.7% 101% 2532356 5.05 V
2026-09-04 21:17:57 IIXF 851.78 hPa 59.8% 15.61°C 57.33 Ohm
2026-09-04 21:17:56 IIXF 851.78 hPa 59.8% 15.61°C 57.33 Ohm
2026-09-04 21:17:45 J8ke 0.98% 3.0% 101% 36295 4.29 V
2026-09-04 21:17:44 J8ke 0.98% 3.0% 101% 36295 4.29 V
2026-09-04 21:15:49 J8ke
2026-09-04 21:15:48 J8ke
2026-09-04 21:10:40 TG08 23.86°C
2026-09-04 21:10:27 ah01 0.34% 0.0% 96% 6345736 4.15 V
2026-09-04 21:10:27 ah01 0.34% 0.0% 96% 6345736 4.15 V
2026-09-04 21:10:23 ah01 0.34% 0.0% 96% 6345736 4.15 V
2026-09-04 21:10:23 ah01 0.34% 0.0% 96% 6345736 4.15 V
2026-09-04 21:08:30 DOS 1.42% 5.9% 101% 381875 4.22 V
2026-09-04 21:08:30 DOS 1.42% 5.9% 101% 381875 4.22 V
2026-09-04 21:08:25 PMT2 0.35% 0.9% 101% 1953781 4.2 V
2026-09-04 21:08:25 PMT2 0.35% 0.9% 101% 1953781 4.2 V
2026-09-04 21:08:14 EEPa 851.48 hPa 52.52% 21.55°C
2026-09-04 21:08:14 EEPa 851.48 hPa 52.52% 21.55°C
2026-09-04 21:08:11 LRX1 1014.08 hPa 41.73% 21.1°C
2026-09-04 21:08:11 LRX1 1014.08 hPa 41.73% 21.1°C
2026-09-04 21:08:09 LRX1 1014.08 hPa 41.73% 21.1°C
2026-09-04 21:07:56 PMT2 23.09°C
2026-09-04 21:07:56 PMT2 23.09°C
2026-09-04 21:07:09 LRX1 1.28% 0.0% 101% 8347508 4.85 V
2026-09-04 21:07:09 LRX1 1.28% 0.0% 101% 8347508 4.85 V
2026-09-04 21:07:08 MSHU 4.34% 19.3% 100% 232259 4.19 V
2026-09-04 21:07:07 MSHU 4.34% 19.3% 100% 232259 4.19 V
2026-09-04 21:07:05 LRX1 1.28% 0.0% 101% 8347508 4.85 V
2026-09-04 21:06:03 3b00 0.03% 2.6% 101% 46 4.2 V
2026-09-04 21:06:03 3b00 0.03% 2.6% 101% 46 4.2 V
2026-09-04 21:03:07 RF03 0.14% 0.0% 99% 1343409 4.19 V
2026-09-04 21:03:06 RF03 0.14% 0.0% 99% 1343409 4.19 V
2026-09-04 21:02:54 RF03 0.14% 0.0% 99% 1343409 4.19 V
2026-09-04 21:02:53 RF03 0.14% 0.0% 99% 1343409 4.19 V
2026-09-04 21:02:53 RF03 0.14% 0.0% 99% 1343409 4.19 V
2026-09-04 21:01:44 ah03 696.34 hPa 63.21% 27.0°C
2026-09-04 21:01:44 ah03 696.34 hPa 63.21% 27.0°C
2026-09-04 21:01:41 ah03 0.77% 4.9% 78% 4052814 3.98 V
2026-09-04 21:01:40 ah03 0.77% 4.9% 78% 4052814 3.98 V
2026-09-04 21:01:33 ah03 0.77% 4.9% 78% 4052814 3.98 V
2026-09-04 21:01:33 ah03 0.77% 4.9% 78% 4052814 3.98 V
2026-09-04 21:00:36 EN11 0.02% 1.1% 101% 209629 4.12 V
2026-09-04 21:00:36 EN11 0.02% 1.1% 101% 209629 4.12 V
2026-09-04 21:00:36 EN11 0.02% 1.1% 101% 209629 4.12 V
2026-09-04 21:00:06 5RC 0.16% 0.0% 98% 531145 4.17 V
2026-09-04 20:59:51 5RC 0.16% 0.0% 98% 531145 4.17 V
2026-09-04 20:59:51 5RC 0.16% 0.0% 98% 531145 4.17 V
2026-09-04 20:59:16 EEPr 0.12% 0.0% 101% 2457049 4.34 V
2026-09-04 20:59:16 EEPr 0.12% 0.0% 101% 2457049 4.34 V
2026-09-04 20:58:33 BB04 2.08% 7.1% 101% 1035671 -0.0 V
2026-09-04 20:58:30 BB04 2.08% 7.1% 101% 1035671 -0.0 V
2026-09-04 20:58:30 BB04 2.08% 7.1% 101% 1035671 -0.0 V
2026-09-04 20:57:53 IIXF 1.4% 5.1% 101% 1319984 4.28 V
2026-09-04 20:57:53 IIXF 1.4% 5.1% 101% 1319984 4.28 V
2026-09-04 20:57:53 Rhee 0.76% 3.0% 101% 198763 4.23 V
2026-09-04 20:57:53 Rhee 0.76% 3.0% 101% 198763 4.23 V
2026-09-04 20:56:56 IIXF 851.78 hPa 59.8% 15.61°C 57.33 Ohm
2026-09-04 20:56:56 IIXF 851.78 hPa 59.8% 15.61°C 57.33 Ohm
2026-09-04 20:56:42 ah03
2026-09-04 20:56:42 ah03
2026-09-04 20:55:17 TG08 0.26% 0.0% 78% 33375 3.94 V
2026-09-04 20:54:25 MJTM 1.75% 3.2% 101% 16084 4.21 V
2026-09-04 20:54:24 MJTM 1.75% 3.2% 101% 16084 4.21 V
2026-09-04 20:53:50 MJTM 1.75% 3.2% 101% 16084 4.21 V
2026-09-04 20:53:50 MJTM 1.75% 3.2% 101% 16084 4.21 V
2026-09-04 20:52:28 ah01 0.32% 0.0% 96% 6344655 4.15 V
2026-09-04 20:52:28 ah01 0.32% 0.0% 96% 6344655 4.15 V
2026-09-04 20:52:22 ah01 0.32% 0.0% 96% 6344655 4.15 V
2026-09-04 20:52:22 ah01 0.32% 0.0% 96% 6344655 4.15 V
2026-09-04 20:51:11 LMGB 0.2% 3.8% 101% 1171009 -0.0 V
2026-09-04 20:51:11 LMGB 0.2% 3.8% 101% 1171009 -0.0 V
2026-09-04 20:50:25 PMT2 0.33% 0.9% 101% 1952701 4.2 V
2026-09-04 20:50:24 PMT2 0.33% 0.9% 101% 1952701 4.2 V
2026-09-04 20:49:56 PMT2 23.34°C
2026-09-04 20:49:55 PMT2 23.34°C
2026-09-04 20:49:33 htec 3.04% 3.3% 101% 98818 4.25 V
2026-09-04 20:49:32 htec 3.04% 3.3% 101% 98818 4.25 V
2026-09-04 20:48:33 PTRH 0.44% 0.0% 56% 1584458 3.77 V
2026-09-04 20:48:33 PTRH 0.44% 0.0% 56% 1584458 3.77 V
2026-09-04 20:47:11 LRX1 1014.01 hPa 41.89% 21.1°C
2026-09-04 20:47:09 LRX1 1014.01 hPa 41.89% 21.1°C
2026-09-04 20:46:10 EEPa 0.05% 0.0% 100% 6983452 4.13 V
2026-09-04 20:46:10 EEPa 0.05% 0.0% 100% 6983452 4.13 V
2026-09-04 20:46:05 LRX1 1.17% 0.0% 101% 8346248 4.85 V
2026-09-04 20:46:05 LRX1 1.17% 0.0% 101% 8346248 4.85 V
2026-09-04 20:46:02 LRX1 1.17% 0.0% 101% 8346248 4.85 V
2026-09-04 20:46:01 LRX1 1.17% 0.0% 101% 8346248 4.85 V
2026-09-04 20:44:26 LML2 0.18% 0.0% 100% 695637 4.15 V
2026-09-04 20:44:25 LML2 0.18% 0.0% 100% 695637 4.15 V
2026-09-04 20:40:38 TG08 25.88°C
2026-09-04 20:39:43 ah02 83.5% 14.39°C
2026-09-04 20:39:43 ah02 83.5% 14.39°C
2026-09-04 20:39:39 ah02 83.5% 14.39°C
2026-09-04 20:39:39 ah02 83.5% 14.39°C
2026-09-04 20:39:23 ah02 0.04% 10.3% 65% 60 3.85 V
2026-09-04 20:39:22 ah02 0.04% 10.3% 65% 60 3.85 V
2026-09-04 20:39:19 5RC 1026.76 hPa 73.58% 16.13°C
2026-09-04 20:39:18 5RC 1026.76 hPa 73.58% 16.13°C
2026-09-04 20:39:15 ah02 0.04% 10.3% 65% 60 3.85 V
2026-09-04 20:39:14 ah02 0.04% 10.3% 65% 60 3.85 V
2026-09-04 20:37:13 Jim1 0.81% 9.8% 94% 17527356 4.11 V
2026-09-04 20:37:12 Jim1 0.81% 9.8% 94% 17527356 4.11 V
2026-09-04 20:37:12 Jim1 0.81% 9.8% 94% 17527356 4.11 V
2026-09-04 20:36:53 IIXF 1.35% 4.4% 101% 1318724 4.21 V
2026-09-04 20:36:53 IIXF 1.35% 4.4% 101% 1318724 4.21 V
2026-09-04 20:36:48 tge0 2.94% 9.2% 93% 9993123 4.1 V
2026-09-04 20:36:46 tge0 2.94% 9.2% 93% 9993123 4.1 V
2026-09-04 20:36:45 tge0 2.94% 9.2% 93% 9993123 4.1 V
2026-09-04 20:36:27 RF01 1.08% 0.0% 99% 1572175 4.18 V
2026-09-04 20:36:26 RF01 1.08% 0.0% 99% 1572175 4.18 V
2026-09-04 20:36:18 RF01 1.08% 0.0% 99% 1572175 4.18 V
2026-09-04 20:36:18 RF01 1.08% 0.0% 99% 1572175 4.18 V
2026-09-04 20:36:18 RF01 1.08% 0.0% 99% 1572175 4.18 V
2026-09-04 20:36:10 3bb8 1.4% 1.1% 101% 2529836 5.05 V
2026-09-04 20:36:10 3bb8 1.4% 1.1% 101% 2529836 5.05 V
2026-09-04 20:36:03 38b6 0.05% 4.3% 101% 720457 4.02 V
2026-09-04 20:36:02 38b6 0.05% 4.3% 101% 720457 4.02 V
2026-09-04 20:35:56 IIXF 851.78 hPa 59.8% 15.61°C 57.33 Ohm
2026-09-04 20:35:56 IIXF 851.78 hPa 59.8% 15.61°C 57.33 Ohm
2026-09-04 20:34:21 ah01 0.31% 0.0% 96% 6343574 4.15 V
2026-09-04 20:34:21 ah01 0.31% 0.0% 96% 6343574 4.15 V
2026-09-04 20:34:05 Rhee 0.75% 6.2% 101% 197322 4.22 V
2026-09-04 20:34:05 Rhee 0.75% 6.2% 101% 197322 4.22 V
2026-09-04 20:32:59 RF03 0.15% 2.3% 99% 1341609 4.18 V
2026-09-04 20:32:59 RF03 0.15% 2.3% 99% 1341609 4.18 V
2026-09-04 20:32:53 RF03 0.15% 2.3% 99% 1341609 4.18 V
2026-09-04 20:32:53 RF03 0.15% 2.3% 99% 1341609 4.18 V
2026-09-04 20:32:53 RF03 0.15% 2.3% 99% 1341609 4.18 V
2026-09-04 20:32:24 PMT2 0.37% 0.9% 101% 1951620 4.2 V
2026-09-04 20:32:24 PMT2 0.37% 0.9% 101% 1951620 4.2 V
2026-09-04 20:32:07 EEPa 850.36 hPa 52.73% 21.75°C
2026-09-04 20:32:07 EEPa 850.36 hPa 52.73% 21.75°C
2026-09-04 20:31:55 PMT2 23.66°C
2026-09-04 20:31:55 PMT2 23.66°C
2026-09-04 20:31:01 ah03 696.34 hPa 63.88% 27.0°C
2026-09-04 20:31:01 ah03 696.34 hPa 63.88% 27.0°C
2026-09-04 20:30:49 ah03 696.34 hPa 63.88% 27.0°C
2026-09-04 20:30:48 ah03 696.34 hPa 63.88% 27.0°C
2026-09-04 20:30:45 ah03 0.77% 1.9% 79% 4050965 3.98 V
2026-09-04 20:30:45 ah03 0.77% 1.9% 79% 4050965 3.98 V
2026-09-04 20:29:10 EEPr 0.1% 0.0% 101% 2455243 4.34 V
2026-09-04 20:29:09 EEPr 0.1% 0.0% 101% 2455243 4.34 V
2026-09-04 20:27:36 7274 0.41% 1.2% 100% 2560055 4.11 V
2026-09-04 20:27:35 7274 0.41% 1.2% 100% 2560055 4.11 V
2026-09-04 20:26:13 LRX1 1013.19 hPa 41.85% 21.24°C
2026-09-04 20:26:13 LRX1 1013.19 hPa 41.85% 21.24°C
2026-09-04 20:26:09 LRX1 1013.19 hPa 41.85% 21.24°C
2026-09-04 20:25:29 DOS 1.41% 4.2% 101% 379295 4.2 V
2026-09-04 20:25:29 DOS 1.41% 4.2% 101% 379295 4.2 V
2026-09-04 20:25:15 TG08 0.62% 0.0% 79% 31574 3.95 V
2026-09-04 20:25:03 LRX1 1.1% 4.4% 101% 8344987 4.84 V
2026-09-04 20:21:23 DJMH 0.28% 0.9% 85% 17070413 4.02 V
2026-09-04 20:21:22 DJMH 0.28% 0.9% 85% 17070413 4.02 V
2026-09-04 20:15:53 IIXF 1.49% 5.0% 97% 1317464 4.15 V
2026-09-04 20:15:53 IIXF 1.49% 5.0% 97% 1317464 4.15 V
2026-09-04 20:15:11 LMGB 0.2% 1.6% 101% 1168849 -0.0 V
2026-09-04 20:15:10 LMGB 0.2% 1.6% 101% 1168849 -0.0 V
2026-09-04 20:14:56 IIXF 851.78 hPa 59.8% 15.61°C 57.33 Ohm
2026-09-04 20:14:56 IIXF 851.78 hPa 59.8% 15.61°C 57.33 Ohm
2026-09-04 20:14:24 PMT2 0.41% 0.9% 101% 1950540 4.2 V
2026-09-04 20:14:24 PMT2 0.41% 0.9% 101% 1950540 4.2 V
2026-09-04 20:13:55 PMT2 24.42°C
2026-09-04 20:13:54 PMT2 24.42°C
2026-09-04 20:12:33 PTRH 0.36% 6.2% 58% 1582298 3.79 V
2026-09-04 20:12:32 PTRH 0.36% 6.2% 58% 1582298 3.79 V
2026-09-04 20:10:38 TG08 14.66°C
2026-09-04 20:10:06 BB04 1.89% 10.1% 101% 1032763 -0.0 V
2026-09-04 20:10:06 BB04 1.89% 10.1% 101% 1032763 -0.0 V
2026-09-04 20:10:03 BB04 1.89% 10.1% 101% 1032763 -0.0 V
2026-09-04 20:10:02 BB04 1.89% 10.1% 101% 1032763 -0.0 V
2026-09-04 20:09:37 EN05 0.48% 0.0% 38% 27782 3.62 V
2026-09-04 20:08:44 MJTM 1.28% 2.1% 100% 13383 4.2 V
2026-09-04 20:08:42 MJTM 1.28% 2.1% 100% 13383 4.2 V
2026-09-04 20:08:41 htec 2.98% 4.2% 101% 96350 4.22 V
2026-09-04 20:08:41 htec 2.98% 4.2% 101% 96350 4.22 V
2026-09-04 20:08:41 MJTM 1.28% 2.1% 100% 13383 4.2 V
2026-09-04 20:08:25 LML2 0.2% 0.0% 100% 693476 4.15 V
2026-09-04 20:08:25 LML2 0.2% 0.0% 100% 693476 4.15 V
2026-09-04 20:08:24 htec 2.98% 4.2% 101% 96350 4.22 V
2026-09-04 20:08:24 htec 2.98% 4.2% 101% 96350 4.22 V
2026-09-04 20:05:13 LRX1 1012.92 hPa 42.07% 21.03°C
2026-09-04 20:05:12 LRX1 1012.92 hPa 42.07% 21.03°C
2026-09-04 20:05:06 LRX1 1012.92 hPa 42.07% 21.03°C
2026-09-04 20:05:06 LRX1 1012.92 hPa 42.07% 21.03°C
2026-09-04 20:02:52 RF03 0.12% 0.0% 99% 1339808 4.19 V
2026-09-04 20:02:52 RF03 0.12% 0.0% 99% 1339808 4.19 V
2026-09-04 20:02:52 RF03 0.12% 0.0% 99% 1339808 4.19 V
2026-09-04 20:02:06 LRX1 0.88% 0.0% 101% 8343607 4.84 V
2026-09-04 20:02:06 LRX1 0.88% 0.0% 101% 8343607 4.84 V
2026-09-04 20:00:53 ah03 0.77% 4.9% 79% 4049160 3.98 V
2026-09-04 20:00:53 ah03 0.77% 4.9% 79% 4049160 3.98 V
2026-09-04 20:00:47 ah03 696.34 hPa 62.78% 27.0°C
2026-09-04 20:00:45 ah03 0.77% 4.9% 79% 4049160 3.98 V
2026-09-04 20:00:45 ah03 0.77% 4.9% 79% 4049160 3.98 V
2026-09-04 19:59:53 5RC 0.11% 0.0% 92% 527543 4.09 V
2026-09-04 19:59:04 EEPr 0.1% 0.0% 101% 2453437 4.34 V
2026-09-04 19:59:03 EEPr 0.1% 0.0% 101% 2453437 4.34 V
2026-09-04 19:58:28 ah01 0.37% 0.0% 96% 6341412 4.15 V
2026-09-04 19:58:28 ah01 0.37% 0.0% 96% 6341412 4.15 V
2026-09-04 19:57:08 dc64 0.23% 2.1% 77% 1460834 3.96 V
2026-09-04 19:57:07 dc64 0.23% 2.1% 77% 1460834 3.96 V
2026-09-04 19:56:23 PMT2 0.63% 0.9% 101% 1949460 4.2 V
2026-09-04 19:56:23 PMT2 0.63% 0.9% 101% 1949460 4.2 V
2026-09-04 19:56:00 EEPa 850.27 hPa 52.18% 22.09°C
2026-09-04 19:56:00 EEPa 850.27 hPa 52.18% 22.09°C
2026-09-04 19:55:54 PMT2 24.64°C
2026-09-04 19:55:54 PMT2 24.64°C
2026-09-04 19:55:46 Mex1 0.85% 0.9% 44% 26408 3.67 V
2026-09-04 19:55:46 Mex1 0.85% 0.9% 44% 26408 3.67 V
2026-09-04 19:55:14 TG08 1.02% 0.0% 79% 29773 3.95 V
2026-09-04 19:55:05 ah03
2026-09-04 19:55:05 ah03
2026-09-04 19:54:53 IIXF 1.48% 3.9% 99% 1316204 4.18 V
2026-09-04 19:54:53 IIXF 1.48% 3.9% 99% 1316204 4.18 V
2026-09-04 19:54:04 3bb8 1.76% 5.4% 101% 2527316 5.02 V
2026-09-04 19:54:04 3bb8 1.76% 5.4% 101% 2527316 5.02 V
2026-09-04 19:53:56 IIXF 851.78 hPa 59.8% 15.61°C 57.33 Ohm
2026-09-04 19:53:56 IIXF 851.78 hPa 59.8% 15.61°C 57.33 Ohm
2026-09-04 19:49:12 Jim1 0.98% 4.6% 93% 17524475 4.1 V
2026-09-04 19:49:11 Jim1 0.98% 4.6% 93% 17524475 4.1 V
2026-09-04 19:48:18 RF01 0.98% 1.0% 101% 1569295 4.23 V
2026-09-04 19:48:18 RF01 0.98% 1.0% 101% 1569295 4.23 V
2026-09-04 19:48:17 RF01 0.98% 1.0% 101% 1569295 4.23 V
2026-09-04 19:47:58 Rhee 0.76% 1.0% 101% 194562 4.23 V
2026-09-04 19:47:57 Rhee 0.76% 1.0% 101% 194562 4.23 V
2026-09-04 19:47:44 MJTM 1.84% 1.2% 100% 12123 4.2 V
2026-09-04 19:47:44 MJTM 1.84% 1.2% 100% 12123 4.2 V
2026-09-04 19:41:04 LRX1 0.79% 4.3% 101% 8342347 4.81 V
2026-09-04 19:41:04 LRX1 0.79% 4.3% 101% 8342347 4.81 V
2026-09-04 19:40:37 TG08 16.46°C
2026-09-04 19:40:18 ah01 0.39% 0.0% 96% 6340330 4.15 V
2026-09-04 19:40:18 ah01 0.39% 0.0% 96% 6340330 4.15 V
2026-09-04 19:39:49 EN05 0.52% 16.5% 39% 25981 3.63 V
2026-09-04 19:39:18 5RC 1025.94 hPa 74.01% 15.83°C
2026-09-04 19:39:10 LMGB 0.2% 1.1% 101% 1166689 -0.0 V
2026-09-04 19:39:10 LMGB 0.2% 1.1% 101% 1166689 -0.0 V
2026-09-04 19:38:23 PMT2 0.67% 0.9% 101% 1948379 4.2 V
2026-09-04 19:38:23 PMT2 0.67% 0.9% 101% 1948379 4.2 V
2026-09-04 19:37:54 PMT2 24.58°C
2026-09-04 19:37:53 PMT2 24.58°C
2026-09-04 19:37:40 DOS 1.49% 8.4% 101% 376414 4.22 V
2026-09-04 19:37:40 DOS 1.49% 8.4% 101% 376414 4.22 V
2026-09-04 19:37:29 DOS 1.49% 8.4% 101% 376414 4.22 V
2026-09-04 19:37:28 DOS 1.49% 8.4% 101% 376414 4.22 V
2026-09-04 19:37:08 ah02 79.41% 14.71°C
2026-09-04 19:37:08 ah02 79.41% 14.71°C
2026-09-04 19:36:50 ah02 0.04% 11.8% 64% 61 3.84 V
2026-09-04 19:36:49 ah02 0.04% 11.8% 64% 61 3.84 V
2026-09-04 19:36:46 ah02 0.04% 11.8% 64% 61 3.84 V
2026-09-04 19:36:32 PTRH 0.37% 0.0% 55% 1580138 3.76 V
2026-09-04 19:36:32 PTRH 0.37% 0.0% 55% 1580138 3.76 V
2026-09-04 19:36:02 38b6 0.09% 4.3% 101% 716856 4.02 V
2026-09-04 19:36:02 38b6 0.09% 4.3% 101% 716856 4.02 V
2026-09-04 19:33:53 IIXF 1.41% 2.2% 97% 1314944 4.16 V
2026-09-04 19:33:53 IIXF 1.41% 2.2% 97% 1314944 4.16 V
2026-09-04 19:32:56 RF03 0.05% 2.1% 99% 1338007 4.18 V
2026-09-04 19:32:56 IIXF 851.78 hPa 59.8% 15.61°C 57.33 Ohm
2026-09-04 19:32:56 IIXF 851.78 hPa 59.8% 15.61°C 57.33 Ohm
2026-09-04 19:32:55 RF03 0.05% 2.1% 99% 1338007 4.18 V
2026-09-04 19:32:51 RF03 0.05% 2.1% 99% 1338007 4.18 V
2026-09-04 19:32:51 RF03 0.05% 2.1% 99% 1338007 4.18 V
2026-09-04 19:32:51 RF03 0.05% 2.1% 99% 1338007 4.18 V
2026-09-04 19:32:25 LML2 0.18% 0.0% 100% 691316 4.15 V
2026-09-04 19:32:25 LML2 0.18% 0.0% 100% 691316 4.15 V
2026-09-04 19:29:51 5RC 0.14% 1.0% 96% 525743 4.14 V
2026-09-04 19:28:57 EEPr 0.13% 0.0% 101% 2451631 4.34 V
2026-09-04 19:28:57 EEPr 0.13% 0.0% 101% 2451631 4.34 V
2026-09-04 19:25:13 TG08 0.83% 0.0% 80% 27971 3.96 V
2026-09-04 19:24:01 ah03
2026-09-04 19:24:00 ah03
2026-09-04 19:23:59 Rhee 0.65% 0.0% 101% 193122 4.23 V
2026-09-04 19:23:58 Rhee 0.65% 0.0% 101% 193122 4.23 V
2026-09-04 19:23:47 MJTM 1.78% 0.0% 101% 10683 4.22 V
2026-09-04 19:23:45 MJTM 1.78% 0.0% 101% 10683 4.22 V
2026-09-04 19:23:45 MJTM 1.78% 0.0% 101% 10683 4.22 V
2026-09-04 19:22:23 ah01 0.36% 1.0% 97% 6339248 4.15 V
2026-09-04 19:22:22 ah01 0.36% 1.0% 97% 6339248 4.15 V
2026-09-04 19:22:15 ah01 0.36% 1.0% 97% 6339248 4.15 V
2026-09-04 19:22:15 ah01 0.36% 1.0% 97% 6339248 4.15 V
2026-09-04 19:21:39 BB04 1.65% 11.9% 101% 1029857 -0.0 V
2026-09-04 19:20:23 PMT2 0.59% 0.9% 101% 1947299 4.2 V
2026-09-04 19:20:22 PMT2 0.59% 0.9% 101% 1947299 4.2 V
2026-09-04 19:20:14 htec 3.16% 2.9% 101% 93460 4.28 V
2026-09-04 19:20:13 htec 3.16% 2.9% 101% 93460 4.28 V
2026-09-04 19:19:53 PMT2 25.06°C
2026-09-04 19:19:53 PMT2 25.06°C
2026-09-04 19:19:52 EEPa 849.04 hPa 51.86% 22.44°C
2026-09-04 19:19:51 EEPa 849.04 hPa 51.86% 22.44°C
2026-09-04 19:18:04 3bb8 1.79% 7.5% 101% 2525156 5.06 V
2026-09-04 19:18:04 3bb8 1.79% 7.5% 101% 2525156 5.06 V
2026-09-04 19:17:13 LRX1 1012.86 hPa 41.9% 21.19°C
2026-09-04 19:17:11 LRX1 0.79% 3.4% 101% 8340907 4.84 V
2026-09-04 19:17:10 LRX1 1012.86 hPa 41.9% 21.19°C
2026-09-04 19:17:09 LRX1 1012.86 hPa 41.9% 21.19°C
2026-09-04 19:17:04 LRX1 0.79% 3.4% 101% 8340907 4.84 V
2026-09-04 19:13:46 Mex1 0.86% 0.0% 37% 23888 3.61 V
2026-09-04 19:13:46 Mex1 0.86% 0.0% 37% 23888 3.61 V
2026-09-04 19:13:45 tge0 2.82% 0.0% 95% 9988143 4.13 V
2026-09-04 19:13:45 tge0 2.82% 0.0% 95% 9988143 4.13 V
2026-09-04 19:12:54 IIXF 1.38% 2.2% 90% 1313684 4.05 V
2026-09-04 19:12:54 IIXF 1.38% 2.2% 90% 1313684 4.05 V
2026-09-04 19:11:56 IIXF 851.78 hPa 59.8% 15.61°C 57.33 Ohm
2026-09-04 19:11:56 IIXF 851.78 hPa 59.8% 15.61°C 57.33 Ohm
2026-09-04 19:10:35 TG08 21.34°C
2026-09-04 19:09:28 EN05 0.6% 0.0% 41% 24181 3.65 V
2026-09-04 19:09:28 EN05 0.6% 0.0% 41% 24181 3.65 V
2026-09-04 19:09:28 EN05 0.6% 0.0% 41% 24181 3.65 V
2026-09-04 19:09:16 5RC 1025.37 hPa 73.22% 15.96°C
2026-09-04 19:09:16 5RC 1025.37 hPa 73.22% 15.96°C
2026-09-04 19:04:21 ah01 0.32% 0.0% 96% 6338168 4.15 V
2026-09-04 19:04:21 ah01 0.32% 0.0% 96% 6338168 4.15 V
2026-09-04 19:04:17 ah01 0.32% 0.0% 96% 6338168 4.15 V
2026-09-04 19:04:17 ah01 0.32% 0.0% 96% 6338168 4.15 V
2026-09-04 19:03:10 LMGB 0.18% 2.1% 101% 1164528 -0.0 V
2026-09-04 19:03:10 LMGB 0.18% 2.1% 101% 1164528 -0.0 V
2026-09-04 19:02:51 RF03 0.04% 1.9% 99% 1336206 4.18 V
2026-09-04 19:02:51 RF03 0.04% 1.9% 99% 1336206 4.18 V
2026-09-04 19:02:51 RF03 0.04% 1.9% 99% 1336206 4.18 V
2026-09-04 19:02:28 PMT2 0.48% 1.8% 101% 1946218 4.2 V
2026-09-04 19:02:28 PMT2 0.48% 1.8% 101% 1946218 4.2 V
2026-09-04 19:02:22 PMT2 0.48% 1.8% 101% 1946218 4.2 V
2026-09-04 19:02:22 PMT2 0.48% 1.8% 101% 1946218 4.2 V
2026-09-04 19:02:03 PMT2 25.63°C
2026-09-04 19:02:01 PMT2 25.63°C
2026-09-04 19:02:01 PMT2 25.63°C
2026-09-04 19:01:53 PMT2 25.63°C
2026-09-04 19:01:52 PMT2 25.63°C
2026-09-04 19:00:26 RF01 0.85% 2.2% 101% 1566415 4.21 V
2026-09-04 19:00:24 RF01 0.85% 2.2% 101% 1566415 4.21 V
2026-09-04 19:00:23 Rhee 0.56% 2.3% 101% 191681 4.22 V
2026-09-04 19:00:23 Rhee 0.56% 2.3% 101% 191681 4.22 V
2026-09-04 19:00:23 EN11 0.09% 10.5% 101% 202423 4.13 V
2026-09-04 19:00:23 EN11 0.09% 10.5% 101% 202423 4.13 V
2026-09-04 19:00:22 Rhee 0.56% 2.3% 101% 191681 4.22 V
2026-09-04 19:00:17 RF01 0.85% 2.2% 101% 1566415 4.21 V
2026-09-04 19:00:17 RF01 0.85% 2.2% 101% 1566415 4.21 V
2026-09-04 19:00:17 RF01 0.85% 2.2% 101% 1566415 4.21 V
2026-09-04 18:59:50 MJTM 1.24% 9.7% 99% 9243 4.19 V
2026-09-04 18:59:49 5RC 0.24% 0.0% 101% 523943 4.23 V
2026-09-04 18:59:49 MJTM 1.24% 9.7% 99% 9243 4.19 V
2026-09-04 18:59:49 5RC 0.24% 0.0% 101% 523943 4.23 V
2026-09-04 18:59:38 MJTM 1.24% 9.7% 99% 9243 4.19 V
2026-09-04 18:58:57 ah03 696.34 hPa 61.65% 27.0°C
2026-09-04 18:58:57 ah03 696.34 hPa 61.65% 27.0°C
2026-09-04 18:58:51 EEPr 0.15% 0.0% 101% 2449824 4.34 V
2026-09-04 18:58:51 EEPr 0.15% 0.0% 101% 2449824 4.34 V
2026-09-04 18:57:47 EEPa 0.18% 0.0% 100% 6976949 4.13 V
2026-09-04 18:57:47 EEPa 0.18% 0.0% 100% 6976949 4.13 V
2026-09-04 18:56:25 LML2 0.17% 0.0% 100% 689156 4.15 V
2026-09-04 18:56:25 LML2 0.17% 0.0% 100% 689156 4.15 V
2026-09-04 18:55:12 TG08 0.75% 0.0% 82% 26170 3.98 V
2026-09-04 18:54:32 PTRH 0.49% 0.0% 56% 1577617 3.77 V
2026-09-04 18:54:32 PTRH 0.49% 0.0% 56% 1577617 3.77 V
2026-09-04 18:53:14 LRX1 1012.6 hPa 41.73% 21.13°C
2026-09-04 18:53:14 LRX1 1012.6 hPa 41.73% 21.13°C
2026-09-04 18:53:09 LRX1 1012.6 hPa 41.73% 21.13°C
2026-09-04 18:53:05 LRX1 0.79% 2.3% 101% 8339467 4.84 V
2026-09-04 18:53:04 LRX1 0.79% 2.3% 101% 8339467 4.84 V
2026-09-04 18:51:53 IIXF 1.31% 4.1% 101% 1312424 4.27 V
2026-09-04 18:51:52 IIXF 1.31% 4.1% 101% 1312424 4.27 V
2026-09-04 18:50:56 IIXF 851.78 hPa 59.8% 15.61°C 57.33 Ohm
2026-09-04 18:50:56 IIXF 851.78 hPa 59.8% 15.61°C 57.33 Ohm
2026-09-04 18:49:29 DOS 1.29% 2.0% 99% 373534 4.18 V
2026-09-04 18:49:28 DOS 1.29% 2.0% 99% 373534 4.18 V
2026-09-04 18:44:22 PMT2 0.34% 2.1% 101% 1945137 4.21 V
2026-09-04 18:44:21 PMT2 0.34% 2.1% 101% 1945137 4.21 V
2026-09-04 18:43:52 PMT2 26.23°C
2026-09-04 18:43:52 PMT2 26.23°C
2026-09-04 18:43:44 EEPa 849.79 hPa 52.05% 22.52°C
2026-09-04 18:43:44 EEPa 849.79 hPa 52.05% 22.52°C
2026-09-04 18:40:34 TG08 29.72°C
2026-09-04 18:39:16 5RC 1024.96 hPa 72.78% 16.17°C
2026-09-04 18:39:15 5RC 1024.96 hPa 72.78% 16.17°C
2026-09-04 18:39:01 Rhee 0.5% 6.2% 101% 190421 4.23 V
2026-09-04 18:39:01 Rhee 0.5% 6.2% 101% 190421 4.23 V
2026-09-04 18:38:40 BB04 1.47% 5.9% 101% 1027281 -0.0 V
2026-09-04 18:38:40 BB04 1.47% 5.9% 101% 1027281 -0.0 V
2026-09-04 18:36:04 3bb8 1.65% 1.1% 101% 2522636 5.06 V
2026-09-04 18:36:04 3bb8 1.65% 1.1% 101% 2522636 5.06 V
2026-09-04 18:35:40 MJTM 0.83% 1.9% 100% 7802 4.19 V
2026-09-04 18:35:39 MJTM 0.83% 1.9% 100% 7802 4.19 V
2026-09-04 18:34:48 ah02 81.02% 14.95°C
2026-09-04 18:34:42 ah02 81.02% 14.95°C
2026-09-04 18:34:42 ah02 81.02% 14.95°C
2026-09-04 18:34:30 ah02 0.09% 17.1% 65% 60 3.85 V
2026-09-04 18:34:30 ah02 0.09% 17.1% 65% 60 3.85 V
2026-09-04 18:34:17 ah02 0.09% 17.1% 65% 60 3.85 V
2026-09-04 18:34:04 htec 3.12% 12.4% 101% 90690 4.24 V
2026-09-04 18:34:04 htec 3.12% 12.4% 101% 90690 4.24 V
2026-09-04 18:33:00 dc64 0.29% 0.0% 78% 1455794 3.97 V
2026-09-04 18:33:00 dc64 0.29% 0.0% 78% 1455794 3.97 V
2026-09-04 18:32:50 RF03 0.04% 2.1% 99% 1334405 4.19 V
2026-09-04 18:32:50 RF03 0.04% 2.1% 99% 1334405 4.19 V
2026-09-04 18:32:50 RF03 0.04% 2.1% 99% 1334405 4.19 V
2026-09-04 18:30:53 IIXF 1.38% 3.3% 93% 1311164 4.09 V
2026-09-04 18:30:52 IIXF 1.38% 3.3% 93% 1311164 4.09 V
2026-09-04 18:30:00 J8ke 0.98% 3.2% 101% 26185 5.07 V
2026-09-04 18:29:59 J8ke 0.98% 3.2% 101% 26185 5.07 V
2026-09-04 18:29:57 5RC 0.2% 0.0% 101% 522142 4.2 V
2026-09-04 18:29:57 5RC 0.2% 0.0% 101% 522142 4.2 V
2026-09-04 18:29:56 IIXF 851.78 hPa 59.8% 15.61°C 57.33 Ohm
2026-09-04 18:29:56 IIXF 851.78 hPa 59.8% 15.61°C 57.33 Ohm
2026-09-04 18:29:52 5RC 0.2% 0.0% 101% 522142 4.2 V
2026-09-04 18:29:52 5RC 0.2% 0.0% 101% 522142 4.2 V
2026-09-04 18:29:10 LRX1 1011.99 hPa 41.98% 21.14°C
2026-09-04 18:29:10 LRX1 1011.99 hPa 41.98% 21.14°C
2026-09-04 18:29:10 LRX1 1011.99 hPa 41.98% 21.14°C
2026-09-04 18:29:04 LRX1 0.9% 2.1% 101% 8338026 4.84 V
2026-09-04 18:29:04 LRX1 0.9% 2.1% 101% 8338026 4.84 V
2026-09-04 18:28:45 EEPr 0.15% 0.0% 101% 2448018 4.34 V
2026-09-04 18:28:44 EEPr 0.15% 0.0% 101% 2448018 4.34 V
2026-09-04 18:28:19 ah01 0.36% 3.9% 96% 6336006 4.15 V
2026-09-04 18:28:19 ah01 0.36% 3.9% 96% 6336006 4.15 V
2026-09-04 18:27:10 LMGB 0.22% 2.8% 101% 1162368 -0.0 V
2026-09-04 18:27:09 LMGB 0.22% 2.8% 101% 1162368 -0.0 V
2026-09-04 18:26:21 PMT2 0.28% 2.1% 101% 1944057 4.2 V
2026-09-04 18:26:21 PMT2 0.28% 2.1% 101% 1944057 4.2 V
2026-09-04 18:25:52 PMT2 27.24°C
2026-09-04 18:25:51 PMT2 27.24°C
2026-09-04 18:25:11 TG08 0.98% 0.0% 83% 24369 3.98 V
2026-09-04 18:20:25 LML2 0.2% 0.0% 100% 686996 4.15 V
2026-09-04 18:20:24 LML2 0.2% 0.0% 100% 686996 4.15 V
2026-09-04 18:12:32 PTRH 0.5% 3.8% 56% 1575097 3.77 V
2026-09-04 18:12:32 PTRH 0.5% 3.8% 56% 1575097 3.77 V
2026-09-04 18:12:17 RF01 1.07% 3.0% 101% 1563534 4.25 V
2026-09-04 18:12:17 RF01 1.07% 3.0% 101% 1563534 4.25 V
2026-09-04 18:12:17 RF01 1.07% 3.0% 101% 1563534 4.25 V
2026-09-04 18:11:44 MJTM 1.58% 0.0% 99% 6362 4.19 V
2026-09-04 18:11:44 MJTM 1.58% 0.0% 99% 6362 4.19 V
2026-09-04 18:11:40 MJTM 1.58% 0.0% 99% 6362 4.19 V
2026-09-04 18:11:40 MJTM 1.58% 0.0% 99% 6362 4.19 V
2026-09-04 18:10:33 TG08 27.21°C
2026-09-04 18:10:12 ah01 0.48% 0.0% 97% 6334925 4.15 V
2026-09-04 18:10:12 ah01 0.48% 0.0% 97% 6334925 4.15 V
2026-09-04 18:09:53 IIXF 1.43% 3.9% 95% 1309904 4.12 V
2026-09-04 18:09:52 IIXF 1.43% 3.9% 95% 1309904 4.12 V
2026-09-04 18:09:34 EN05 0.29% 0.0% 45% 20579 3.68 V
2026-09-04 18:09:34 EN05 0.29% 0.0% 45% 20579 3.68 V
2026-09-04 18:09:15 5RC 1024.56 hPa 72.64% 16.16°C
2026-09-04 18:09:15 5RC 1024.56 hPa 72.64% 16.16°C
2026-09-04 18:08:56 IIXF 851.78 hPa 59.8% 15.61°C 57.33 Ohm
2026-09-04 18:08:56 IIXF 851.78 hPa 59.8% 15.61°C 57.33 Ohm
2026-09-04 18:08:21 PMT2 0.2% 0.9% 101% 1942976 4.2 V
2026-09-04 18:08:20 PMT2 0.2% 0.9% 101% 1942976 4.2 V
2026-09-04 18:07:51 PMT2 27.62°C
2026-09-04 18:07:51 PMT2 27.62°C
2026-09-04 18:07:37 EEPa 849.02 hPa 52.26% 22.38°C
2026-09-04 18:07:37 EEPa 849.02 hPa 52.26% 22.38°C
2026-09-04 18:07:15 MONS 1.21% 7.1% 101% 32469 -0.0 V
2026-09-04 18:07:14 MONS 1.21% 7.1% 101% 32469 -0.0 V
2026-09-04 18:07:11 MONS 1.21% 7.1% 101% 32469 -0.0 V
2026-09-04 18:07:10 MONS 1.21% 7.1% 101% 32469 -0.0 V
2026-09-04 18:07:10 MONS 1.21% 7.1% 101% 32469 -0.0 V
2026-09-04 18:05:11 LRX1 1.04% 0.0% 101% 8336586 4.83 V
2026-09-04 18:05:11 LRX1 1.04% 0.0% 101% 8336586 4.83 V
2026-09-04 18:05:07 LRX1 1012.43 hPa 41.74% 21.13°C
2026-09-04 18:05:06 LRX1 1012.43 hPa 41.74% 21.13°C
2026-09-04 18:05:06 LRX1 1012.43 hPa 41.74% 21.13°C
2026-09-04 18:05:04 LRX1 1.04% 0.0% 101% 8336586 4.83 V
2026-09-04 18:03:57 8848 24.94°C
2026-09-04 18:03:57 8848 24.94°C
2026-09-04 18:02:50 RF03 0.04% 1.0% 99% 1332605 4.18 V
2026-09-04 18:02:49 RF03 0.04% 1.0% 99% 1332605 4.18 V
2026-09-04 18:02:49 RF03 0.04% 1.0% 99% 1332605 4.18 V
2026-09-04 18:02:24 dfba 0.38% 2.3% 55% 126095 3.76 V
2026-09-04 18:02:24 dfba 0.38% 2.3% 55% 126095 3.76 V
2026-09-04 18:01:28 DOS 1.43% 2.0% 101% 370654 4.22 V
2026-09-04 18:01:27 DOS 1.43% 2.0% 101% 370654 4.22 V
2026-09-04 18:00:26 EN11 0.05% 2.3% 101% 198820 4.13 V
2026-09-04 18:00:25 EN11 0.05% 2.3% 101% 198820 4.13 V
2026-09-04 18:00:04 3bb8 1.44% 6.4% 101% 2520476 5.04 V
2026-09-04 18:00:04 3bb8 1.44% 6.4% 101% 2520476 5.04 V
2026-09-04 17:59:49 5RC 0.24% 0.0% 94% 520342 4.12 V
2026-09-04 17:59:48 5RC 0.24% 0.0% 94% 520342 4.12 V
2026-09-04 17:58:39 EEPr 0.18% 0.0% 101% 2446212 4.34 V
2026-09-04 17:58:38 EEPr 0.18% 0.0% 101% 2446212 4.34 V
2026-09-04 17:57:06 ah03 696.34 hPa 57.43% 27.0°C
2026-09-04 17:57:05 ah03 0.69% 6.8% 81% 4041724 4.0 V
2026-09-04 17:57:05 ah03 0.69% 6.8% 81% 4041724 4.0 V
2026-09-04 17:55:10 TG08 0.79% 4.2% 85% 22567 4.0 V
2026-09-04 17:52:32 ah03
2026-09-04 17:52:31 ah03
2026-09-04 17:52:18 ah03
2026-09-04 17:52:18 ah01 0.67% 0.0% 96% 6333844 4.15 V
2026-09-04 17:52:18 ah03
2026-09-04 17:52:16 ah01 0.67% 0.0% 96% 6333844 4.15 V
2026-09-04 17:52:16 ah01 0.67% 0.0% 96% 6333844 4.15 V
2026-09-04 17:51:09 LMGB 0.22% 2.3% 101% 1160208 -0.0 V
2026-09-04 17:51:09 LMGB 0.22% 2.3% 101% 1160208 -0.0 V
2026-09-04 17:50:44 BB04 1.21% 12.3% 101% 1024398 -0.0 V
2026-09-04 17:50:44 BB04 1.21% 12.3% 101% 1024398 -0.0 V
2026-09-04 17:50:41 BB04 1.21% 12.3% 101% 1024398 -0.0 V
2026-09-04 17:50:41 BB04 1.21% 12.3% 101% 1024398 -0.0 V
2026-09-04 17:50:20 PMT2 0.14% 0.9% 101% 1941896 4.2 V
2026-09-04 17:50:20 PMT2 0.14% 0.9% 101% 1941896 4.2 V
2026-09-04 17:49:51 PMT2 28.29°C
2026-09-04 17:49:50 PMT2 28.29°C
2026-09-04 17:48:53 IIXF 1.54% 3.3% 101% 1308644 4.27 V
2026-09-04 17:48:52 IIXF 1.54% 3.3% 101% 1308644 4.27 V
2026-09-04 17:47:56 IIXF 851.78 hPa 59.8% 15.61°C 57.33 Ohm
2026-09-04 17:47:55 IIXF 851.78 hPa 59.8% 15.61°C 57.33 Ohm
2026-09-04 17:47:44 MJTM 1.62% 2.0% 101% 4922 4.26 V
2026-09-04 17:47:44 MJTM 1.62% 2.0% 101% 4922 4.26 V
2026-09-04 17:47:39 MJTM 1.62% 2.0% 101% 4922 4.26 V
2026-09-04 17:47:38 MJTM 1.62% 2.0% 101% 4922 4.26 V
2026-09-04 17:46:45 tge0 3.09% 2.0% 95% 9982922 4.13 V
2026-09-04 17:46:45 tge0 3.09% 2.0% 95% 9982922 4.13 V
2026-09-04 17:44:25 LML2 0.2% 1.2% 100% 684836 4.15 V
2026-09-04 17:44:24 LML2 0.2% 1.2% 100% 684836 4.15 V
2026-09-04 17:41:26 LRX1 1012.21 hPa 41.62% 21.19°C
2026-09-04 17:41:25 LRX1 1012.21 hPa 41.62% 21.19°C
2026-09-04 17:41:25 LRX1 1012.21 hPa 41.62% 21.19°C
2026-09-04 17:41:12 J8ke 0.99% 2.1% 101% 23305 5.06 V
2026-09-04 17:41:12 J8ke 0.99% 2.1% 101% 23305 5.06 V
2026-09-04 17:41:06 LRX1 1.06% 1.1% 101% 8335146 4.84 V
2026-09-04 17:41:06 LRX1 1.06% 1.1% 101% 8335146 4.84 V
2026-09-04 17:41:03 LRX1 1.06% 1.1% 101% 8335146 4.84 V
2026-09-04 17:40:32 TG08 30.56°C
2026-09-04 17:39:36 EN05 0.5% 5.4% 47% 18778 3.7 V
2026-09-04 17:39:36 EN05 0.5% 5.4% 47% 18778 3.7 V
2026-09-04 17:39:15 5RC 1024.02 hPa 72.32% 15.87°C
2026-09-04 17:39:15 5RC 1024.02 hPa 72.32% 15.87°C
2026-09-04 17:37:59 MONS 1.16% 2.8% 101% 30669 -0.0 V
2026-09-04 17:37:59 MONS 1.16% 2.8% 101% 30669 -0.0 V
2026-09-04 17:37:11 MONS 1.16% 2.8% 101% 30669 -0.0 V
2026-09-04 17:37:11 MONS 1.16% 2.8% 101% 30669 -0.0 V
2026-09-04 17:37:11 MONS 1.16% 2.8% 101% 30669 -0.0 V
2026-09-04 17:36:32 PTRH 0.47% 0.0% 56% 1572937 3.77 V
2026-09-04 17:36:31 PTRH 0.47% 0.0% 56% 1572937 3.77 V
2026-09-04 17:34:20 ah01 0.93% 0.0% 96% 6332763 4.15 V
2026-09-04 17:34:20 ah01 0.93% 0.0% 96% 6332763 4.15 V
2026-09-04 17:34:10 ah01 0.93% 0.0% 96% 6332763 4.15 V
2026-09-04 17:34:10 ah01 0.93% 0.0% 96% 6332763 4.15 V
2026-09-04 17:32:48 RF03 0.1% 4.9% 99% 1330803 4.18 V
2026-09-04 17:32:48 RF03 0.1% 4.9% 99% 1330803 4.18 V
2026-09-04 17:32:48 RF03 0.1% 4.9% 99% 1330803 4.18 V
2026-09-04 17:32:20 PMT2 0.14% 0.9% 101% 1940815 4.21 V
2026-09-04 17:32:20 PMT2 0.14% 0.9% 101% 1940815 4.21 V
2026-09-04 17:32:15 ah02 79.1% 15.34°C
2026-09-04 17:31:51 ah02 0.04% 8.1% 64% 61 3.84 V
2026-09-04 17:31:51 ah02 0.04% 8.1% 64% 61 3.84 V
2026-09-04 17:31:51 ah02 0.04% 8.1% 64% 61 3.84 V
2026-09-04 17:31:50 PMT2 28.15°C
2026-09-04 17:31:50 PMT2 28.15°C
2026-09-04 17:31:30 EEPa 849.37 hPa 52.79% 22.18°C
2026-09-04 17:31:29 EEPa 849.37 hPa 52.79% 22.18°C
2026-09-04 17:29:57 htec 3.18% 11.3% 101% 86843 4.21 V
2026-09-04 17:29:57 htec 3.18% 11.3% 101% 86843 4.21 V
2026-09-04 17:29:49 5RC 0.5% 3.9% 97% 518542 4.16 V
2026-09-04 17:29:49 5RC 0.5% 3.9% 97% 518542 4.16 V
2026-09-04 17:28:38 7274 0.43% 1.2% 100% 2549254 4.11 V
2026-09-04 17:28:37 7274 0.43% 1.2% 100% 2549254 4.11 V
2026-09-04 17:28:32 EEPr 0.18% 0.0% 101% 2444406 4.34 V
2026-09-04 17:28:32 EEPr 0.18% 0.0% 101% 2444406 4.34 V
2026-09-04 17:27:53 IIXF 1.51% 3.9% 93% 1307384 4.09 V
2026-09-04 17:27:52 IIXF 1.51% 3.9% 93% 1307384 4.09 V
2026-09-04 17:27:23 MJTM 1.19% 5.5% 101% 3662 4.25 V
2026-09-04 17:27:22 MJTM 1.19% 5.5% 101% 3662 4.25 V
2026-09-04 17:26:56 IIXF 851.78 hPa 59.8% 15.61°C 57.33 Ohm
2026-09-04 17:26:55 MJTM 1.19% 5.5% 101% 3662 4.25 V
2026-09-04 17:26:55 MJTM 1.19% 5.5% 101% 3662 4.25 V
2026-09-04 17:26:55 IIXF 851.78 hPa 59.8% 15.61°C 57.33 Ohm
2026-09-04 17:26:50 Rhee 0.53% 6.9% 101% 186101 4.23 V
2026-09-04 17:26:50 Rhee 0.53% 6.9% 101% 186101 4.23 V
2026-09-04 17:26:37 ah03 696.34 hPa 59.56% 27.0°C
2026-09-04 17:26:37 ah03 696.34 hPa 59.56% 27.0°C
2026-09-04 17:26:34 ah03 696.34 hPa 59.56% 27.0°C
2026-09-04 17:26:34 ah03 696.34 hPa 59.56% 27.0°C
2026-09-04 17:25:08 TG08 0.92% 0.0% 86% 20766 4.01 V
2026-09-04 17:24:17 RF01 0.85% 8.2% 101% 1560654 4.23 V
2026-09-04 17:24:16 RF01 0.85% 8.2% 101% 1560654 4.23 V
2026-09-04 17:24:16 RF01 0.85% 8.2% 101% 1560654 4.23 V
2026-09-04 17:24:04 3bb8 1.38% 9.8% 101% 2518316 5.06 V
2026-09-04 17:24:04 3bb8 1.38% 9.8% 101% 2518316 5.06 V
2026-09-04 17:21:51 ah03
2026-09-04 17:21:51 ah03
2026-09-04 17:17:14 LRX1 1012.26 hPa 42.13% 21.19°C
2026-09-04 17:17:14 LRX1 1012.26 hPa 42.13% 21.19°C
2026-09-04 17:17:12 LRX1 1012.26 hPa 42.13% 21.19°C
2026-09-04 17:15:14 J8ke
2026-09-04 17:15:14 J8ke
2026-09-04 17:15:12 J8ke 0.38 V
2026-09-04 17:15:12 J8ke 0.38 V
2026-09-04 17:15:09 LMGB 0.26% 1.7% 101% 1158048 -0.0 V
2026-09-04 17:15:09 LMGB 0.26% 1.7% 101% 1158048 -0.0 V
2026-09-04 17:14:20 PMT2 0.14% 0.9% 101% 1939735 4.2 V
2026-09-04 17:14:19 PMT2 0.14% 0.9% 101% 1939735 4.2 V
2026-09-04 17:13:50 PMT2 27.93°C
2026-09-04 17:13:49 PMT2 27.93°C
2026-09-04 17:13:36 DOS 1.31% 3.4% 99% 367773 4.18 V
2026-09-04 17:13:35 DOS 1.31% 3.4% 99% 367773 4.18 V
2026-09-04 17:13:28 DOS 1.31% 3.4% 99% 367773 4.18 V
2026-09-04 17:13:28 DOS 1.31% 3.4% 99% 367773 4.18 V
2026-09-04 17:10:32 TG08 30.08°C
2026-09-04 17:09:25 EEPa 0.08% 0.0% 100% 6970446 4.13 V
2026-09-04 17:09:24 EEPa 0.08% 0.0% 100% 6970446 4.13 V
2026-09-04 17:09:15 5RC 1023.51 hPa 71.87% 16.52°C
2026-09-04 17:09:15 5RC 1023.51 hPa 71.87% 16.52°C
2026-09-04 17:08:24 LML2 0.26% 1.2% 100% 682675 4.15 V
2026-09-04 17:08:24 LML2 0.26% 1.2% 100% 682675 4.15 V
2026-09-04 17:07:10 MONS 0.92% 3.8% 101% 28868 -0.0 V
2026-09-04 17:07:10 MONS 0.92% 3.8% 101% 28868 -0.0 V
2026-09-04 17:07:10 MONS 0.92% 3.8% 101% 28868 -0.0 V
2026-09-04 17:06:53 IIXF 1.64% 2.8% 90% 1306124 4.05 V
2026-09-04 17:06:52 IIXF 1.64% 2.8% 90% 1306124 4.05 V
2026-09-04 17:05:56 IIXF 851.15 hPa 59.93% 15.65°C 43.33 Ohm
2026-09-04 17:05:55 IIXF 851.15 hPa 59.93% 15.65°C 43.33 Ohm
2026-09-04 17:04:31 c238 0.01% 0.9% 101% 46 4.3 V
2026-09-04 17:04:31 c238 0.01% 0.9% 101% 46 4.3 V
2026-09-04 17:03:34 8848 0.25% 3.4% 52% 36058 3.79 V
2026-09-04 17:03:34 8848 0.25% 3.4% 52% 36058 3.79 V
2026-09-04 17:02:54 BB04 1.02% 2.0% 101% 1021517 -0.0 V
2026-09-04 17:02:53 BB04 1.02% 2.0% 101% 1021517 -0.0 V
2026-09-04 17:02:48 BB04 1.02% 2.0% 101% 1021517 -0.0 V
2026-09-04 17:02:47 RF03 0.15% 1.0% 99% 1329002 4.19 V
2026-09-04 17:02:47 RF03 0.15% 1.0% 99% 1329002 4.19 V
2026-09-04 17:02:47 RF03 0.15% 1.0% 99% 1329002 4.19 V
2026-09-04 17:00:31 PTRH 0.36% 0.0% 52% 1570777 3.74 V
2026-09-04 17:00:31 PTRH 0.36% 0.0% 52% 1570777 3.74 V
2026-09-04 17:00:24 EN11 0.05% 0.0% 101% 195217 4.13 V
2026-09-04 17:00:24 EN11 0.05% 0.0% 101% 195217 4.13 V
2026-09-04 16:59:48 5RC 0.46% 1.0% 92% 516741 4.09 V
2026-09-04 16:59:48 5RC 0.46% 1.0% 92% 516741 4.09 V
2026-09-04 16:58:26 EEPr 0.13% 0.0% 101% 2442599 4.34 V
2026-09-04 16:58:26 EEPr 0.13% 0.0% 101% 2442599 4.34 V
2026-09-04 16:56:19 PMT2 0.14% 0.9% 101% 1938655 4.2 V
2026-09-04 16:56:19 PMT2 0.14% 0.9% 101% 1938655 4.2 V
2026-09-04 16:56:13 ah03 696.34 hPa 55.29% 27.0°C
2026-09-04 16:56:12 ah03 696.34 hPa 55.29% 27.0°C
2026-09-04 16:55:49 PMT2 27.66°C
2026-09-04 16:55:49 PMT2 27.66°C
2026-09-04 16:55:23 EEPa 848.52 hPa 52.44% 22.13°C
2026-09-04 16:55:22 EEPa 848.52 hPa 52.44% 22.13°C
2026-09-04 16:55:07 TG08 0.92% 0.0% 87% 18965 4.02 V
2026-09-04 16:53:14 EN57 0.04% 10.2% 65% 65 3.85 V
2026-09-04 16:53:14 EN57 0.04% 10.2% 65% 65 3.85 V
2026-09-04 16:53:07 LRX1 1.02% 0.0% 101% 8332265 4.83 V
2026-09-04 16:53:06 LRX1 1.02% 0.0% 101% 8332265 4.83 V
2026-09-04 16:53:03 LRX1 1.02% 0.0% 101% 8332265 4.83 V
2026-09-04 16:53:03 LRX1 1.02% 0.0% 101% 8332265 4.83 V
2026-09-04 16:53:03 LRX1 1.02% 0.0% 101% 8332265 4.83 V
2026-09-04 16:52:08 ah01 0.84% 9.3% 96% 6330241 4.15 V
2026-09-04 16:52:07 ah01 0.84% 9.3% 96% 6330241 4.15 V
2026-09-04 16:51:35 7274 0.73% 1.2% 100% 2547093 4.11 V
2026-09-04 16:51:35 7274 0.73% 1.2% 100% 2547093 4.11 V
2026-09-04 16:51:17 ah03
2026-09-04 16:51:17 ah03
2026-09-04 16:48:04 3bb8 1.26% 6.5% 101% 2516156 5.03 V
2026-09-04 16:48:03 3bb8 1.26% 6.5% 101% 2516156 5.03 V
2026-09-04 16:47:36 Tigz 837.91 hPa 57.68% 21.69°C
2026-09-04 16:47:36 Tigz 837.91 hPa 57.68% 21.69°C
2026-09-04 16:45:53 IIXF 1.71% 2.9% 101% 1304864 4.21 V
2026-09-04 16:45:52 IIXF 1.71% 2.9% 101% 1304864 4.21 V
2026-09-04 16:44:56 IIXF 852.09 hPa 57.58% 15.97°C 93.38 Ohm
2026-09-04 16:44:55 IIXF 852.09 hPa 57.58% 15.97°C 93.38 Ohm
2026-09-04 16:42:49 EN57 0.04% 10.7% 65% 65 3.85 V
2026-09-04 16:42:48 EN57 0.04% 10.7% 65% 65 3.85 V
2026-09-04 16:40:30 TG08 29.94°C
2026-09-04 16:39:09 LMGB 0.31% 1.6% 101% 1155887 -0.0 V
2026-09-04 16:39:08 LMGB 0.31% 1.6% 101% 1155887 -0.0 V
2026-09-04 16:38:19 PMT2 0.14% 0.9% 101% 1937574 4.21 V
2026-09-04 16:38:18 PMT2 0.14% 0.9% 101% 1937574 4.21 V
2026-09-04 16:37:49 PMT2 27.29°C
2026-09-04 16:37:48 PMT2 27.29°C
2026-09-04 16:37:16 MONS 0.91% 10.0% 101% 27068 -0.0 V
2026-09-04 16:37:14 MONS 0.91% 10.0% 101% 27068 -0.0 V
2026-09-04 16:36:16 RF01 0.81% 4.9% 99% 1557773 4.19 V
2026-09-04 16:36:16 RF01 0.81% 4.9% 99% 1557773 4.19 V
2026-09-04 16:36:16 RF01 0.81% 4.9% 99% 1557773 4.19 V
2026-09-04 16:32:47 RF03 0.07% 3.3% 99% 1327201 4.19 V
2026-09-04 16:32:46 RF03 0.07% 3.3% 99% 1327201 4.19 V
2026-09-04 16:32:46 RF03 0.07% 3.3% 99% 1327201 4.19 V
2026-09-04 16:32:24 LML2 0.3% 1.1% 100% 680515 4.15 V
2026-09-04 16:32:24 LML2 0.3% 1.1% 100% 680515 4.15 V
2026-09-04 16:30:11 5RC 0.22% 3.1% 93% 514941 4.09 V
2026-09-04 16:29:55 ah02 71.4% 16.39°C
2026-09-04 16:29:54 ah02 71.4% 16.39°C
2026-09-04 16:29:44 ah02 71.4% 16.39°C
2026-09-04 16:29:44 ah02 71.4% 16.39°C
2026-09-04 16:29:33 ah02 0.04% 8.8% 64% 60 3.84 V
2026-09-04 16:29:33 ah02 0.04% 8.8% 64% 60 3.84 V
2026-09-04 16:29:32 ah02 0.04% 8.8% 64% 60 3.84 V
2026-09-04 16:29:12 J8ke 0.38% 5.0% 101% 18985 5.05 V
2026-09-04 16:29:12 J8ke 0.38% 5.0% 101% 18985 5.05 V
2026-09-04 16:29:12 J8ke 0.38% 5.0% 101% 18985 5.05 V
2026-09-04 16:29:12 J8ke 0.38% 5.0% 101% 18985 5.05 V
2026-09-04 16:28:20 EEPr 0.11% 0.0% 101% 2440793 4.34 V
2026-09-04 16:28:19 EEPr 0.11% 0.0% 101% 2440793 4.34 V
2026-09-04 16:27:57 htec 2.23% 3.3% 101% 83123 4.26 V
2026-09-04 16:27:57 htec 2.23% 3.3% 101% 83123 4.26 V
2026-09-04 16:25:42 DOS 0.91% 0.9% 99% 364893 4.19 V
2026-09-04 16:25:41 DOS 0.91% 0.9% 99% 364893 4.19 V
2026-09-04 16:25:35 DOS 0.91% 0.9% 99% 364893 4.19 V
2026-09-04 16:25:35 DOS 0.91% 0.9% 99% 364893 4.19 V
2026-09-04 16:25:06 TG08 0.76% 1.9% 87% 17163 4.02 V
2026-09-04 16:24:53 IIXF 1.76% 8.4% 64% 1303604 3.84 V
2026-09-04 16:24:52 IIXF 1.76% 8.4% 64% 1303604 3.84 V
2026-09-04 16:24:31 PTRH 0.39% 0.0% 57% 1568616 3.78 V
2026-09-04 16:24:30 PTRH 0.39% 0.0% 57% 1568616 3.78 V
2026-09-04 16:23:56 IIXF 852.27 hPa 51.29% 17.46°C 142.84 Ohm
2026-09-04 16:23:55 IIXF 852.27 hPa 51.29% 17.46°C 142.84 Ohm
2026-09-04 16:21:24 ah03
2026-09-04 16:21:24 ah03
2026-09-04 16:21:17 ah03
2026-09-04 16:21:16 ah03
2026-09-04 16:20:18 PMT2 0.14% 0.9% 101% 1936494 4.2 V
2026-09-04 16:20:18 PMT2 0.14% 0.9% 101% 1936494 4.2 V
2026-09-04 16:19:48 PMT2 26.95°C
2026-09-04 16:19:48 PMT2 26.95°C
2026-09-04 16:19:14 EEPa 847.44 hPa 52.13% 22.11°C
2026-09-04 16:19:14 EEPa 847.44 hPa 52.13% 22.11°C
2026-09-04 16:15:39 7274 1.03% 4.2% 100% 2544933 4.11 V
2026-09-04 16:15:39 7274 1.03% 4.2% 100% 2544933 4.11 V
2026-09-04 16:14:49 Rhee 0.45% 5.2% 101% 181780 4.23 V
2026-09-04 16:14:49 Rhee 0.45% 5.2% 101% 181780 4.23 V
2026-09-04 16:14:49 Rhee 0.45% 5.2% 101% 181780 4.23 V
2026-09-04 16:14:49 Rhee 0.45% 5.2% 101% 181780 4.23 V
2026-09-04 16:14:42 BB04 1.02% 2.0% 101% 1018637 -0.0 V
2026-09-04 16:14:42 BB04 1.02% 2.0% 101% 1018637 -0.0 V
2026-09-04 16:14:42 BB04 1.02% 2.0% 101% 1018637 -0.0 V
2026-09-04 16:12:03 3bb8 1.27% 4.4% 101% 2513996 5.06 V
2026-09-04 16:12:03 3bb8 1.27% 4.4% 101% 2513996 5.06 V
2026-09-04 16:10:29 TG08 29.9°C
2026-09-04 16:09:24 EN05 0.27% 0.0% 54% 13376 3.76 V
2026-09-04 16:09:23 EN05 0.27% 0.0% 54% 13376 3.76 V
2026-09-04 16:08:31 J8ke 0.51% 3.2% 101% 17725 5.06 V
2026-09-04 16:08:31 J8ke 0.51% 3.2% 101% 17725 5.06 V
2026-09-04 16:08:10 LRX1 1013.6 hPa 41.74% 21.29°C
2026-09-04 16:08:10 LRX1 1013.6 hPa 41.74% 21.29°C
2026-09-04 16:08:10 LRX1 1013.6 hPa 41.74% 21.29°C
2026-09-04 16:07:45 tge0 2.33% 2.0% 95% 9976982 4.13 V
2026-09-04 16:07:45 tge0 2.33% 2.0% 95% 9976982 4.13 V
2026-09-04 16:03:52 IIXF 1.69% 4.4% 72% 1302344 3.92 V
2026-09-04 16:03:52 IIXF 1.69% 4.4% 72% 1302344 3.92 V
2026-09-04 16:03:08 LMGB 0.38% 3.3% 101% 1153727 -0.0 V
2026-09-04 16:03:08 LMGB 0.38% 3.3% 101% 1153727 -0.0 V
2026-09-04 16:02:56 IIXF 851.41 hPa 47.51% 18.78°C 157.42 Ohm
2026-09-04 16:02:55 IIXF 851.41 hPa 47.51% 18.78°C 157.42 Ohm
2026-09-04 16:02:46 RF03 0.04% 0.0% 99% 1325401 4.19 V
2026-09-04 16:02:45 RF03 0.04% 0.0% 99% 1325401 4.19 V
2026-09-04 16:02:45 RF03 0.04% 0.0% 99% 1325401 4.19 V
2026-09-04 16:02:18 PMT2 0.14% 0.9% 101% 1935413 4.21 V
2026-09-04 16:02:18 PMT2 0.14% 0.9% 101% 1935413 4.21 V
2026-09-04 16:01:48 PMT2 26.63°C
2026-09-04 16:01:47 PMT2 26.63°C
2026-09-04 16:00:16 EN11 0.07% 4.3% 101% 191614 4.13 V
2026-09-04 16:00:16 EN11 0.07% 4.3% 101% 191614 4.13 V
2026-09-04 15:58:14 EEPr 0.18% 0.0% 101% 2438987 4.34 V
2026-09-04 15:58:13 EEPr 0.18% 0.0% 101% 2438987 4.34 V
2026-09-04 15:56:24 LML2 0.37% 0.0% 100% 678355 4.15 V
2026-09-04 15:56:24 LML2 0.37% 0.0% 100% 678355 4.15 V
2026-09-04 15:55:13 ah01 0.47% 5.8% 96% 6326817 4.15 V
2026-09-04 15:55:12 ah01 0.47% 5.8% 96% 6326817 4.15 V
2026-09-04 15:55:05 TG08 0.78% 0.0% 89% 15362 4.03 V
2026-09-04 15:55:04 ah01 0.47% 5.8% 96% 6326817 4.15 V
2026-09-04 15:55:04 ah01 0.47% 5.8% 96% 6326817 4.15 V
2026-09-04 15:54:43 ah03 696.34 hPa 58.34% 27.0°C
2026-09-04 15:54:42 ah03 696.34 hPa 58.34% 27.0°C
2026-09-04 15:53:50 Rhee 0.5% 3.0% 101% 180520 4.22 V
2026-09-04 15:53:50 Rhee 0.5% 3.0% 101% 180520 4.22 V
2026-09-04 15:53:50 Rhee 0.5% 3.0% 101% 180520 4.22 V
2026-09-04 15:51:09 ah03
2026-09-04 15:51:08 ah03
2026-09-04 15:51:03 ah03
2026-09-04 15:51:03 ah03
2026-09-04 15:48:30 PTRH 0.61% 0.0% 51% 1566456 3.73 V
2026-09-04 15:48:30 PTRH 0.61% 0.0% 51% 1566456 3.73 V
2026-09-04 15:48:16 RF01 0.87% 3.0% 101% 1554893 4.21 V
2026-09-04 15:48:15 RF01 0.87% 3.0% 101% 1554893 4.21 V
2026-09-04 15:48:15 RF01 0.87% 3.0% 101% 1554893 4.21 V
2026-09-04 15:47:21 J8ke 0.61% 4.1% 101% 16465 5.06 V
2026-09-04 15:47:21 J8ke 0.61% 4.1% 101% 16465 5.06 V
2026-09-04 15:47:10 LRX1 1013.61 hPa 41.08% 21.3°C
2026-09-04 15:47:09 LRX1 1013.61 hPa 41.08% 21.3°C
2026-09-04 15:47:08 LRX1 1013.61 hPa 41.08% 21.3°C
2026-09-04 15:46:19 J8ke
2026-09-04 15:46:19 J8ke
2026-09-04 15:45:34 dc64 0.59% 1.0% 84% 1445714 4.02 V
2026-09-04 15:45:34 dc64 0.59% 1.0% 84% 1445714 4.02 V
2026-09-04 15:44:17 PMT2 0.14% 0.9% 101% 1934333 4.2 V
2026-09-04 15:44:17 PMT2 0.14% 0.9% 101% 1934333 4.2 V
2026-09-04 15:43:47 PMT2 26.39°C
2026-09-04 15:43:47 PMT2 26.39°C
2026-09-04 15:43:07 EEPa 848.29 hPa 51.43% 22.23°C
2026-09-04 15:43:07 EEPa 848.29 hPa 51.43% 22.23°C
2026-09-04 15:42:52 IIXF 1.74% 3.9% 98% 1301084 4.17 V
2026-09-04 15:42:52 IIXF 1.74% 3.9% 98% 1301084 4.17 V
2026-09-04 15:41:56 IIXF 850.84 hPa 38.46% 23.95°C 131.25 Ohm
2026-09-04 15:41:55 IIXF 850.84 hPa 38.46% 23.95°C 131.25 Ohm
2026-09-04 15:40:28 TG08 29.87°C
2026-09-04 15:39:56 htec 2.74% 4.1% 101% 80243 4.25 V
2026-09-04 15:39:56 htec 2.74% 4.1% 101% 80243 4.25 V
2026-09-04 15:39:40 5RC 1022.18 hPa 68.05% 19.24°C
2026-09-04 15:39:40 5RC 1022.18 hPa 68.05% 19.24°C
2026-09-04 15:39:31 7274 1.04% 4.5% 100% 2542772 4.11 V
2026-09-04 15:39:31 7274 1.04% 4.5% 100% 2542772 4.11 V
2026-09-04 15:39:25 EN05 0.2% 5.3% 56% 11575 3.77 V
2026-09-04 15:39:24 EN05 0.2% 5.3% 56% 11575 3.77 V
2026-09-04 15:37:27 DOS 1.02% 3.9% 100% 362013 4.2 V
2026-09-04 15:37:26 DOS 1.02% 3.9% 100% 362013 4.2 V
2026-09-04 15:37:10 MONS 0.85% 1.5% 101% 23468 -0.0 V
2026-09-04 15:37:10 MONS 0.85% 1.5% 101% 23468 -0.0 V
2026-09-04 15:37:10 MONS 0.85% 1.5% 101% 23468 -0.0 V
2026-09-04 15:37:04 ah01 0.47% 2.7% 97% 6325737 4.15 V
2026-09-04 15:37:03 ah01 0.47% 2.7% 97% 6325737 4.15 V
2026-09-04 15:36:03 3bb8 1.3% 10.2% 101% 2511836 5.01 V
2026-09-04 15:36:03 3bb8 1.3% 10.2% 101% 2511836 5.01 V
2026-09-04 15:32:49 Rhee 0.53% 7.3% 101% 179259 4.22 V
2026-09-04 15:32:48 Rhee 0.53% 7.3% 101% 179259 4.22 V
2026-09-04 15:32:45 RF03 0.09% 2.1% 99% 1323600 4.19 V
2026-09-04 15:32:44 RF03 0.09% 2.1% 99% 1323600 4.19 V
2026-09-04 15:32:44 RF03 0.09% 2.1% 99% 1323600 4.19 V
2026-09-04 15:32:35 BB04 1.38% 5.0% 101% 1016117 -0.0 V
2026-09-04 15:32:35 BB04 1.38% 5.0% 101% 1016117 -0.0 V
2026-09-04 15:32:35 BB04 1.38% 5.0% 101% 1016117 -0.0 V
2026-09-04 15:32:35 BB04 1.38% 5.0% 101% 1016117 -0.0 V
2026-09-04 15:30:02 5RC 0.27% 0.0% 101% 511340 4.22 V
2026-09-04 15:28:07 EEPr 0.18% 0.0% 101% 2437181 4.34 V
2026-09-04 15:28:07 EEPr 0.18% 0.0% 101% 2437181 4.34 V
2026-09-04 15:27:20 ah02 69.8% 16.97°C
2026-09-04 15:27:20 ah02 69.8% 16.97°C
2026-09-04 15:27:08 LMGB 0.4% 9.4% 101% 1151567 -0.0 V
2026-09-04 15:27:08 LMGB 0.4% 9.4% 101% 1151567 -0.0 V
2026-09-04 15:26:55 ah02 0.04% 15.4% 64% 61 3.84 V
2026-09-04 15:26:17 PMT2 0.14% 0.9% 101% 1933252 4.2 V
2026-09-04 15:26:17 PMT2 0.14% 0.9% 101% 1933252 4.2 V
2026-09-04 15:26:08 LRX1 1013.64 hPa 41.38% 21.31°C
2026-09-04 15:26:07 LRX1 1013.64 hPa 41.38% 21.31°C
2026-09-04 15:26:07 LRX1 1013.64 hPa 41.38% 21.31°C
2026-09-04 15:26:03 LRX1 0.92% 1.9% 101% 8327045 4.84 V
2026-09-04 15:26:02 LRX1 0.92% 1.9% 101% 8327045 4.84 V
2026-09-04 15:26:02 LRX1 0.92% 1.9% 101% 8327045 4.84 V
2026-09-04 15:25:47 PMT2 26.17°C
2026-09-04 15:25:46 PMT2 26.17°C
2026-09-04 15:25:28 ah03 696.34 hPa 59.07% 27.0°C
2026-09-04 15:25:28 ah03 696.34 hPa 59.07% 27.0°C
2026-09-04 15:25:03 TG08 0.82% 4.2% 89% 13561 4.04 V
2026-09-04 15:24:42 ah03 696.34 hPa 59.07% 27.0°C
2026-09-04 15:24:42 ah03 696.34 hPa 59.07% 27.0°C
2026-09-04 15:24:31 ah03 696.34 hPa 59.07% 27.0°C
2026-09-04 15:24:30 ah03 696.34 hPa 59.07% 27.0°C
2026-09-04 15:24:27 ah03 0.69% 10.8% 84% 4032552 4.01 V
2026-09-04 15:24:27 ah03 0.69% 10.8% 84% 4032552 4.01 V
2026-09-04 15:22:00 IIXF 1.77% 3.9% 60% 1299824 3.81 V
2026-09-04 15:21:53 IIXF 1.77% 3.9% 60% 1299824 3.81 V
2026-09-04 15:21:03 EEPa 0.12% 1.1% 100% 6963945 4.13 V
2026-09-04 15:21:03 EEPa 0.12% 1.1% 100% 6963945 4.13 V
2026-09-04 15:20:56 IIXF 850.71 hPa 50.76% 19.19°C 109.81 Ohm
2026-09-04 15:20:55 IIXF 850.71 hPa 50.76% 19.19°C 109.81 Ohm
2026-09-04 15:20:24 LML2 0.39% 0.0% 100% 676195 4.15 V
2026-09-04 15:20:23 LML2 0.39% 0.0% 100% 676195 4.15 V
2026-09-04 15:12:30 PTRH 0.68% 0.0% 56% 1564296 3.77 V
2026-09-04 15:12:30 PTRH 0.68% 0.0% 56% 1564296 3.77 V
2026-09-04 15:10:48 Rhee 0.57% 3.4% 101% 177939 4.22 V
2026-09-04 15:10:48 Rhee 0.57% 3.4% 101% 177939 4.22 V
2026-09-04 15:10:48 Rhee 0.57% 3.4% 101% 177939 4.22 V
2026-09-04 15:10:27 TG08 30.27°C
2026-09-04 15:09:23 EN05 0.18% 0.0% 58% 9775 3.79 V
2026-09-04 15:08:17 PMT2 0.14% 0.9% 101% 1932172 4.2 V
2026-09-04 15:08:16 PMT2 0.14% 0.9% 101% 1932172 4.2 V
2026-09-04 15:07:46 PMT2 26.04°C
2026-09-04 15:07:46 PMT2 26.04°C
2026-09-04 15:07:10 MONS 0.84% 13.7% 101% 21667 -0.0 V
2026-09-04 15:07:10 MONS 0.84% 13.7% 101% 21667 -0.0 V
2026-09-04 15:07:10 MONS 0.84% 13.7% 101% 21667 -0.0 V
Visit MeshInfo-Lite on Github. Also visit the original MeshInfo by Kevin Elliott.